Time;durP1;ratioP1;P1;durP2;ratioP2;P2;SDS_P1;SDS_P2;PMS_P1;PMS_P2;Temp;Humidity;BMP_temperature;BMP_pressure;BME280_temperature;BME280_humidity;BME280_pressure;Samples;Min_cycle;Max_cycle;Signal;HPM_P1;HPM_P2
2021/09/21 00:00:43;;;;;;;4.33;3.30;;;10.80;99.90;;;;;;5036958;28;20205;-69
2021/09/21 00:03:09;;;;;;;4.60;3.50;;;10.80;99.90;;;;;;5032469;28;20710;-68
2021/09/21 00:05:36;;;;;;;5.00;3.10;;;10.70;99.90;;;;;;5036896;28;20273;-68
2021/09/21 00:08:04;;;;;;;4.13;3.30;;;10.70;99.90;;;;;;5036125;28;20241;-68
2021/09/21 00:10:30;;;;;;;3.67;3.30;;;10.70;99.90;;;;;;5032993;28;20550;-69
2021/09/21 00:12:56;;;;;;;4.25;2.95;;;10.70;99.90;;;;;;5034012;28;20187;-71
2021/09/21 00:15:22;;;;;;;4.10;3.65;;;10.80;99.90;;;;;;5036185;28;20178;-69
2021/09/21 00:17:50;;;;;;;5.32;3.47;;;10.70;99.90;;;;;;5039847;28;20186;-68
2021/09/21 00:20:17;;;;;;;5.03;3.30;;;10.70;99.90;;;;;;5024702;28;20232;-70
2021/09/21 00:22:44;;;;;;;5.03;3.20;;;10.70;99.90;;;;;;5032183;28;20189;-68
2021/09/21 00:25:11;;;;;;;5.10;3.10;;;10.60;99.90;;;;;;5023241;28;20630;-71
2021/09/21 00:27:38;;;;;;;4.32;3.72;;;10.50;99.90;;;;;;5032930;28;20272;-69
2021/09/21 00:30:05;;;;;;;4.35;3.38;;;10.60;99.90;;;;;;5034126;28;20698;-69
2021/09/21 00:32:32;;;;;;;5.30;3.20;;;10.60;99.90;;;;;;5038288;28;20214;-68
2021/09/21 00:34:57;;;;;;;5.00;3.40;;;10.60;99.90;;;;;;5028293;28;20189;-67
2021/09/21 00:37:23;;;;;;;3.97;3.53;;;10.60;99.90;;;;;;5034327;28;20186;-68
2021/09/21 00:39:49;;;;;;;4.82;3.58;;;10.60;99.90;;;;;;5039221;28;20186;-70
2021/09/21 00:42:23;;;;;;;5.90;3.63;;;10.60;99.90;;;;;;5033057;28;20217;-68
2021/09/21 00:44:58;;;;;;;6.93;3.53;;;10.60;99.90;;;;;;5032478;28;20195;-71
2021/09/21 00:47:24;;;;;;;4.73;3.43;;;10.70;99.90;;;;;;5022873;28;20781;-71
2021/09/21 00:49:50;;;;;;;3.80;3.40;;;10.70;99.90;;;;;;5038827;28;20508;-68
2021/09/21 00:52:16;;;;;;;4.72;3.55;;;10.70;99.90;;;;;;5023191;28;20198;-70
2021/09/21 00:54:42;;;;;;;5.00;3.50;;;10.70;99.90;;;;;;5032299;28;20186;-69
2021/09/21 00:57:08;;;;;;;4.63;3.30;;;10.80;99.90;;;;;;5033244;28;20515;-67
2021/09/21 00:59:34;;;;;;;4.57;3.53;;;10.80;99.90;;;;;;5025556;28;20490;-70
2021/09/21 01:01:59;;;;;;;4.27;3.67;;;10.80;99.90;;;;;;5034886;28;20202;-70
2021/09/21 01:04:25;;;;;;;3.78;3.22;;;10.70;99.90;;;;;;5032335;28;20195;-67
2021/09/21 01:06:51;;;;;;;5.68;3.30;;;10.70;99.90;;;;;;5032453;28;20210;-68
2021/09/21 01:09:26;;;;;;;3.90;3.37;;;10.70;99.90;;;;;;5034149;28;20570;-69
2021/09/21 01:11:55;;;;;;;3.92;3.50;;;10.70;99.90;;;;;;5035152;28;20695;-69
2021/09/21 01:14:21;;;;;;;5.10;3.33;;;10.70;99.90;;;;;;5032741;28;20191;-70
2021/09/21 01:16:48;;;;;;;3.67;3.28;;;10.60;99.90;;;;;;5031006;28;20186;-68
2021/09/21 01:19:15;;;;;;;4.57;3.20;;;10.60;99.90;;;;;;5029444;28;20207;-69
2021/09/21 01:21:45;;;;;;;4.83;3.10;;;10.70;99.90;;;;;;5021557;28;20342;-70
2021/09/21 01:24:13;;;;;;;4.27;3.10;;;10.60;99.90;;;;;;5033520;28;20197;-70
2021/09/21 01:26:38;;;;;;;3.90;3.20;;;10.60;99.90;;;;;;5035234;28;20259;-67
2021/09/21 01:29:05;;;;;;;4.33;3.10;;;10.60;99.90;;;;;;5033383;28;20197;-69
2021/09/21 01:31:31;;;;;;;3.53;3.20;;;10.60;99.90;;;;;;5038588;28;20211;-70
2021/09/21 01:34:00;;;;;;;3.87;3.13;;;10.60;99.90;;;;;;5031952;28;20193;-67
2021/09/21 01:36:27;;;;;;;4.23;3.43;;;10.60;99.90;;;;;;5031781;28;20186;-68
2021/09/21 01:38:54;;;;;;;6.10;3.93;;;10.50;99.90;;;;;;5032243;28;20257;-71
2021/09/21 01:41:20;;;;;;;4.22;3.38;;;10.50;99.90;;;;;;5022303;28;20202;-69
2021/09/21 01:43:46;;;;;;;4.70;3.30;;;10.50;99.90;;;;;;5037940;28;20653;-70
2021/09/21 01:46:19;;;;;;;3.50;3.07;;;10.40;99.90;;;;;;5033613;28;20197;-70
2021/09/21 01:48:46;;;;;;;4.70;3.97;;;10.40;99.90;;;;;;5028999;28;20175;-69
2021/09/21 01:51:18;;;;;;;4.00;3.13;;;10.40;99.90;;;;;;5040461;28;20217;-69
2021/09/21 01:59:03;;;;;;;4.23;3.30;;;10.20;99.90;;;;;;5032198;28;20186;-69
2021/09/21 02:01:29;;;;;;;4.37;3.40;;;10.20;99.90;;;;;;5034256;28;20198;-69
2021/09/21 02:03:57;;;;;;;4.67;3.20;;;10.30;99.90;;;;;;5034899;28;20210;-70
2021/09/21 02:06:44;;;;;;;5.13;3.30;;;10.30;99.90;;;;;;5037385;28;20215;-70
2021/09/21 02:09:11;;;;;;;4.63;3.67;;;10.30;99.90;;;;;;5036878;28;20181;-68
2021/09/21 02:11:38;;;;;;;5.73;3.70;;;10.30;99.90;;;;;;5034777;28;20677;-70
2021/09/21 02:14:08;;;;;;;4.90;3.53;;;10.30;99.90;;;;;;5028313;28;20186;-70
2021/09/21 02:16:34;;;;;;;4.37;3.03;;;10.30;99.90;;;;;;5039753;28;20178;-69
2021/09/21 02:19:00;;;;;;;4.10;3.13;;;10.30;99.90;;;;;;5039918;28;20186;-70
2021/09/21 02:21:27;;;;;;;4.43;3.20;;;10.30;99.90;;;;;;5036194;28;20739;-68
2021/09/21 02:23:55;;;;;;;4.77;3.90;;;10.30;99.90;;;;;;5030243;28;20232;-69
2021/09/21 02:26:21;;;;;;;3.57;3.27;;;10.30;99.90;;;;;;5042088;28;20221;-69
2021/09/21 02:28:46;;;;;;;5.97;4.07;;;10.30;99.90;;;;;;5038615;28;20224;-68
2021/09/21 02:31:12;;;;;;;4.87;3.67;;;10.30;99.90;;;;;;5037002;28;20709;-69
2021/09/21 02:33:38;;;;;;;4.90;3.73;;;10.30;99.90;;;;;;5037532;28;20580;-69
2021/09/21 02:36:05;;;;;;;4.70;3.67;;;10.30;99.90;;;;;;5036749;28;20185;-68
2021/09/21 02:38:33;;;;;;;6.20;3.57;;;10.20;99.90;;;;;;5035082;28;20175;-67
2021/09/21 02:40:59;;;;;;;7.27;3.97;;;10.30;99.90;;;;;;5035153;28;20235;-68
2021/09/21 02:43:24;;;;;;;4.60;3.40;;;10.20;99.90;;;;;;5037330;28;20210;-68
2021/09/21 02:45:50;;;;;;;4.80;3.67;;;10.20;99.90;;;;;;5038345;28;21016;-70
2021/09/21 02:48:16;;;;;;;5.33;3.77;;;10.20;99.90;;;;;;5032249;28;20201;-70
2021/09/21 02:50:43;;;;;;;4.13;3.57;;;10.30;99.90;;;;;;5033421;28;20205;-67
2021/09/21 02:53:09;;;;;;;4.33;3.83;;;10.30;99.90;;;;;;5036512;28;20270;-69
2021/09/21 02:55:35;;;;;;;4.73;4.13;;;10.30;99.90;;;;;;5034936;28;20806;-67
2021/09/21 02:58:01;;;;;;;5.37;3.57;;;10.30;99.90;;;;;;5030314;28;20266;-70
2021/09/21 03:00:28;;;;;;;4.60;3.50;;;10.30;99.90;;;;;;5037780;28;20267;-68
2021/09/21 03:02:56;;;;;;;4.57;3.10;;;10.30;99.90;;;;;;5034750;28;20181;-69
2021/09/21 03:05:32;;;;;;;4.77;3.80;;;10.30;99.90;;;;;;5037122;28;20190;-70
2021/09/21 03:08:04;;;;;;;4.37;3.43;;;10.30;99.90;;;;;;5024863;28;20202;-68
2021/09/21 03:13:27;;;;;;;4.50;3.60;;;10.30;99.90;;;;;;5034935;28;20269;-69
2021/09/21 03:18:37;;;;;;;4.80;3.40;;;10.30;99.90;;;;;;5033821;28;20388;-70
2021/09/21 03:21:03;;;;;;;4.97;3.73;;;10.30;99.90;;;;;;5035070;28;20511;-70
2021/09/21 03:23:29;;;;;;;4.70;3.73;;;10.30;99.90;;;;;;5038090;28;20193;-69
2021/09/21 03:25:55;;;;;;;4.60;3.43;;;10.30;99.90;;;;;;5040233;28;20630;-69
2021/09/21 03:28:21;;;;;;;6.97;3.97;;;10.30;99.90;;;;;;5037037;28;20207;-68
2021/09/21 03:30:47;;;;;;;4.10;3.60;;;10.30;99.90;;;;;;5037553;28;20284;-69
2021/09/21 03:33:12;;;;;;;5.50;3.80;;;10.30;99.90;;;;;;5033375;28;20179;-69
2021/09/21 03:35:38;;;;;;;5.43;3.70;;;10.20;99.90;;;;;;5042755;28;20198;-68
2021/09/21 03:38:04;;;;;;;4.83;3.73;;;10.20;99.90;;;;;;5039824;28;20205;-69
2021/09/21 03:40:31;;;;;;;5.83;4.00;;;10.20;99.90;;;;;;5037178;28;20511;-68
2021/09/21 03:42:57;;;;;;;6.13;4.30;;;10.20;99.90;;;;;;5030816;28;20198;-68
2021/09/21 03:45:24;;;;;;;4.53;3.07;;;10.20;99.90;;;;;;5036512;28;20198;-67
2021/09/21 03:47:50;;;;;;;5.17;3.30;;;10.20;99.90;;;;;;5035457;28;20344;-68
2021/09/21 03:50:16;;;;;;;5.07;3.30;;;10.20;99.90;;;;;;5035846;28;20251;-69
2021/09/21 03:52:42;;;;;;;6.00;4.00;;;10.20;99.90;;;;;;5033817;28;20276;-70
2021/09/21 03:55:08;;;;;;;4.43;3.30;;;10.30;99.90;;;;;;5035001;28;20186;-69
2021/09/21 03:57:33;;;;;;;4.80;3.40;;;10.30;99.90;;;;;;5035229;28;20823;-70
2021/09/21 03:59:59;;;;;;;4.97;3.73;;;10.20;99.90;;;;;;5040234;28;20187;-69
2021/09/21 04:02:25;;;;;;;4.50;3.67;;;10.20;99.90;;;;;;5035725;28;20532;-69
2021/09/21 04:04:50;;;;;;;4.20;3.30;;;10.20;99.90;;;;;;5030596;28;20193;-71
2021/09/21 04:07:16;;;;;;;5.17;4.37;;;10.30;99.90;;;;;;5037316;28;20206;-68
2021/09/21 04:09:41;;;;;;;4.90;3.80;;;10.30;99.90;;;;;;5033610;28;20248;-68
2021/09/21 04:12:07;;;;;;;5.17;3.63;;;10.20;99.90;;;;;;5034607;28;20210;-69
2021/09/21 04:14:34;;;;;;;5.33;4.10;;;10.20;99.90;;;;;;5030833;28;20177;-68
2021/09/21 04:16:59;;;;;;;5.93;4.43;;;10.20;99.90;;;;;;5035768;28;20222;-69
2021/09/21 04:19:25;;;;;;;6.10;3.90;;;10.20;99.90;;;;;;5034269;28;20291;-70
2021/09/21 04:21:52;;;;;;;9.40;3.80;;;10.10;99.90;;;;;;5040942;28;20206;-68
2021/09/21 04:24:17;;;;;;;8.47;3.83;;;10.10;99.90;;;;;;5031654;28;20187;-67
2021/09/21 04:26:43;;;;;;;4.93;4.10;;;10.20;99.90;;;;;;5033521;28;20621;-69
2021/09/21 04:29:10;;;;;;;3.83;3.40;;;10.20;99.90;;;;;;5034542;28;20228;-70
2021/09/21 04:31:40;;;;;;;5.37;3.40;;;10.20;99.90;;;;;;5032298;28;20203;-67
2021/09/21 04:34:06;;;;;;;4.67;3.80;;;10.20;99.90;;;;;;5035397;28;20182;-70
2021/09/21 04:36:31;;;;;;;6.53;3.97;;;10.20;99.90;;;;;;5034424;28;20183;-69
2021/09/21 04:38:57;;;;;;;4.67;4.07;;;10.10;99.90;;;;;;5034217;28;20183;-69
2021/09/21 04:41:24;;;;;;;5.60;3.90;;;10.10;99.90;;;;;;5025445;28;20562;-70
2021/09/21 04:43:49;;;;;;;4.50;3.83;;;10.00;99.90;;;;;;5035611;28;20186;-70
2021/09/21 04:46:15;;;;;;;6.63;4.07;;;9.90;99.90;;;;;;5035646;28;20206;-70
2021/09/21 04:48:40;;;;;;;5.93;4.47;;;9.90;99.90;;;;;;5035630;28;20244;-69
2021/09/21 04:51:06;;;;;;;6.27;4.30;;;9.80;99.90;;;;;;5029946;28;20210;-68
2021/09/21 04:53:32;;;;;;;4.57;4.03;;;9.80;99.90;;;;;;5023258;28;20190;-69
2021/09/21 04:55:58;;;;;;;5.70;4.20;;;9.70;99.90;;;;;;5034271;28;20186;-70
2021/09/21 04:58:23;;;;;;;4.30;3.50;;;9.70;99.90;;;;;;5035316;28;20178;-68
2021/09/21 05:00:49;;;;;;;4.93;4.03;;;9.60;99.90;;;;;;5035893;28;20289;-69
2021/09/21 05:03:15;;;;;;;5.73;4.00;;;9.60;99.90;;;;;;5033329;28;20630;-70
2021/09/21 05:05:41;;;;;;;5.27;3.93;;;9.60;99.90;;;;;;5032428;28;20688;-69
2021/09/21 05:08:07;;;;;;;5.97;4.63;;;9.50;99.90;;;;;;5034774;28;20231;-69
2021/09/21 05:10:32;;;;;;;5.63;4.10;;;9.50;99.90;;;;;;5032475;28;20190;-69
2021/09/21 05:12:58;;;;;;;4.37;3.80;;;9.50;99.90;;;;;;5031849;28;20190;-69
2021/09/21 05:15:25;;;;;;;4.87;3.77;;;9.50;99.90;;;;;;5035227;28;20240;-67
2021/09/21 05:17:50;;;;;;;5.43;4.00;;;9.40;99.90;;;;;;5035925;28;20645;-69
2021/09/21 05:20:16;;;;;;;5.77;4.00;;;9.50;99.90;;;;;;5033826;28;20186;-69
2021/09/21 05:22:43;;;;;;;5.07;4.30;;;9.50;99.90;;;;;;5033238;28;20213;-69
2021/09/21 05:25:09;;;;;;;6.00;4.00;;;9.50;99.90;;;;;;5035061;28;20572;-68
2021/09/21 05:27:34;;;;;;;5.80;3.93;;;9.50;99.90;;;;;;5035337;28;20206;-69
2021/09/21 05:30:00;;;;;;;5.73;3.97;;;9.40;99.90;;;;;;5033103;28;20521;-70
2021/09/21 05:32:26;;;;;;;5.20;4.10;;;9.30;99.90;;;;;;5036057;28;20186;-68
2021/09/21 05:34:51;;;;;;;5.87;3.53;;;9.30;99.90;;;;;;5030252;28;20217;-70
2021/09/21 05:37:17;;;;;;;4.43;3.97;;;9.30;99.90;;;;;;5034161;28;20191;-69
2021/09/21 05:39:43;;;;;;;5.60;4.07;;;9.30;99.90;;;;;;5035054;28;20204;-70
2021/09/21 05:42:09;;;;;;;6.23;4.33;;;9.30;99.90;;;;;;5031403;28;20201;-69
2021/09/21 05:44:35;;;;;;;4.73;3.80;;;9.30;99.90;;;;;;5025849;28;20210;-69
2021/09/21 05:47:00;;;;;;;5.03;3.97;;;9.40;99.90;;;;;;5036375;28;20213;-70
2021/09/21 05:49:26;;;;;;;6.30;4.40;;;9.40;99.90;;;;;;5035701;28;20189;-69
2021/09/21 05:51:51;;;;;;;5.13;4.23;;;9.40;99.90;;;;;;5038014;28;20213;-70
2021/09/21 05:54:17;;;;;;;6.43;4.50;;;9.50;99.90;;;;;;5027117;28;20637;-68
2021/09/21 05:56:43;;;;;;;4.93;4.10;;;9.50;99.90;;;;;;5032481;28;20182;-68
2021/09/21 05:59:08;;;;;;;5.13;4.63;;;9.60;99.90;;;;;;5041581;28;20182;-68
2021/09/21 06:01:35;;;;;;;5.57;4.30;;;9.60;99.90;;;;;;5031005;28;20210;-70
2021/09/21 06:04:02;;;;;;;4.80;4.10;;;9.70;99.90;;;;;;5035919;28;20729;-66
2021/09/21 06:06:28;;;;;;;5.63;4.30;;;9.70;99.90;;;;;;5032217;28;20591;-68
2021/09/21 06:08:54;;;;;;;5.13;4.17;;;9.60;99.90;;;;;;5042133;28;20206;-68
2021/09/21 06:11:20;;;;;;;9.13;4.40;;;9.70;99.90;;;;;;5040837;28;20625;-69
2021/09/21 06:13:49;;;;;;;5.73;4.47;;;9.60;99.90;;;;;;5041734;28;20509;-69
2021/09/21 06:16:17;;;;;;;6.17;4.57;;;9.60;99.90;;;;;;5037107;28;20201;-70
2021/09/21 06:18:43;;;;;;;5.90;4.30;;;9.60;99.90;;;;;;5035458;28;20183;-69
2021/09/21 06:21:08;;;;;;;6.10;4.53;;;9.60;99.90;;;;;;5040575;28;20221;-70
2021/09/21 06:23:34;;;;;;;5.27;4.00;;;9.60;99.90;;;;;;5032846;28;20198;-69
2021/09/21 06:26:00;;;;;;;6.77;4.90;;;9.60;99.90;;;;;;5042015;28;20186;-68
2021/09/21 06:28:25;;;;;;;5.73;4.40;;;9.60;99.90;;;;;;5035167;28;20215;-70
2021/09/21 06:30:51;;;;;;;6.50;4.17;;;9.60;99.90;;;;;;5036866;28;20202;-68
2021/09/21 06:33:16;;;;;;;9.23;5.00;;;9.60;99.90;;;;;;5038024;28;20256;-70
2021/09/21 06:35:42;;;;;;;5.87;4.43;;;9.60;99.90;;;;;;5037801;28;20685;-69
2021/09/21 06:38:08;;;;;;;5.60;4.43;;;9.60;99.90;;;;;;5036962;28;20190;-70
2021/09/21 06:40:33;;;;;;;6.77;4.33;;;9.70;99.90;;;;;;5034891;28;20240;-70
2021/09/21 06:42:59;;;;;;;5.37;4.33;;;9.70;99.90;;;;;;5040676;28;20202;-67
2021/09/21 06:45:25;;;;;;;5.70;4.30;;;9.90;99.90;;;;;;5034061;28;20534;-70
2021/09/21 06:47:51;;;;;;;5.30;4.70;;;10.00;99.90;;;;;;5033012;28;20202;-70
2021/09/21 06:50:16;;;;;;;5.70;4.50;;;10.10;99.90;;;;;;5034813;28;20186;-67
2021/09/21 06:52:42;;;;;;;5.00;4.47;;;10.30;99.90;;;;;;5026493;28;20189;-69
2021/09/21 06:55:09;;;;;;;6.63;4.97;;;10.60;99.90;;;;;;5026332;28;20632;-67
2021/09/21 06:57:35;;;;;;;5.63;4.10;;;10.80;99.90;;;;;;5034013;28;20183;-67
2021/09/21 07:00:00;;;;;;;7.82;4.78;;;11.00;99.90;;;;;;5035062;28;20186;-68
2021/09/21 07:02:26;;;;;;;6.20;5.10;;;11.20;99.90;;;;;;5026705;28;20200;-68
2021/09/21 07:04:52;;;;;;;6.10;4.72;;;11.40;99.90;;;;;;5026996;28;20190;-69
2021/09/21 07:07:18;;;;;;;7.00;4.50;;;11.70;99.90;;;;;;5029911;28;20229;-70
2021/09/21 07:09:43;;;;;;;6.45;4.32;;;12.10;99.90;;;;;;5039157;28;20899;-70
2021/09/21 07:12:09;;;;;;;7.57;4.90;;;12.50;99.90;;;;;;5034687;28;20195;-68
2021/09/21 07:14:34;;;;;;;5.40;4.20;;;12.90;99.90;;;;;;5036839;28;20188;-70
2021/09/21 07:17:00;;;;;;;5.57;4.32;;;13.20;99.90;;;;;;5033702;28;20652;-67
2021/09/21 07:19:26;;;;;;;5.43;4.32;;;13.40;99.90;;;;;;5031761;28;20191;-70
2021/09/21 07:21:51;;;;;;;4.50;3.80;;;13.40;99.90;;;;;;5035606;28;20202;-70
2021/09/21 07:24:18;;;;;;;4.93;3.88;;;13.40;99.90;;;;;;5034153;28;20198;-68
2021/09/21 07:26:46;;;;;;;7.07;4.80;;;13.30;99.90;;;;;;5033726;28;20269;-70
2021/09/21 07:29:12;;;;;;;4.72;3.63;;;13.30;99.90;;;;;;5034740;28;20318;-68
2021/09/21 07:31:38;;;;;;;5.28;3.97;;;13.40;99.90;;;;;;5033268;28;20273;-69
2021/09/21 07:34:04;;;;;;;5.70;4.07;;;13.40;99.90;;;;;;5033576;28;20814;-67
2021/09/21 07:36:30;;;;;;;5.35;3.72;;;13.40;99.90;;;;;;5038650;28;20178;-70
2021/09/21 07:38:56;;;;;;;4.85;4.10;;;13.50;99.90;;;;;;5036481;28;20182;-69
2021/09/21 07:41:21;;;;;;;5.20;4.15;;;13.50;99.90;;;;;;5032421;28;20209;-68
2021/09/21 07:43:47;;;;;;;4.88;4.32;;;13.50;99.90;;;;;;5031278;28;20285;-67
2021/09/21 07:46:13;;;;;;;4.80;3.63;;;13.50;99.90;;;;;;5034024;28;20183;-69
2021/09/21 07:48:39;;;;;;;5.53;4.20;;;13.50;99.90;;;;;;5038043;28;20206;-70
2021/09/21 07:51:04;;;;;;;4.55;3.75;;;13.50;99.90;;;;;;5036032;28;20194;-68
2021/09/21 07:53:30;;;;;;;4.65;3.78;;;13.60;99.90;;;;;;5030228;28;20205;-70
2021/09/21 07:55:55;;;;;;;5.32;3.70;;;13.60;99.90;;;;;;5033978;28;20175;-68
2021/09/21 07:58:21;;;;;;;5.18;3.97;;;13.80;99.90;;;;;;5031320;28;20211;-69
2021/09/21 08:00:51;;;;;;;4.43;3.70;;;13.80;99.90;;;;;;5022853;28;20552;-67
2021/09/21 08:03:17;;;;;;;4.97;3.65;;;13.90;99.90;;;;;;5038504;28;20300;-69
2021/09/21 08:05:43;;;;;;;5.45;3.80;;;13.90;99.90;;;;;;5028715;28;20978;-67
2021/09/21 08:08:09;;;;;;;5.32;3.67;;;13.90;99.90;;;;;;5034875;28;20232;-68
2021/09/21 08:10:36;;;;;;;7.43;3.78;;;13.90;99.90;;;;;;5032251;28;20203;-71
2021/09/21 08:13:01;;;;;;;4.25;3.85;;;13.90;99.90;;;;;;5034367;28;20588;-69
2021/09/21 08:15:30;;;;;;;4.85;3.65;;;13.90;99.90;;;;;;5031582;28;20183;-68
2021/09/21 08:17:57;;;;;;;5.35;3.58;;;13.90;99.90;;;;;;5032044;28;20603;-70
2021/09/21 08:20:23;;;;;;;4.60;3.50;;;13.90;99.90;;;;;;5037655;28;20207;-69
2021/09/21 08:22:48;;;;;;;7.63;3.33;;;14.00;99.90;;;;;;5032217;28;20171;-69
2021/09/21 08:25:14;;;;;;;3.95;3.05;;;14.20;99.90;;;;;;5036410;28;20583;-68
2021/09/21 08:27:42;;;;;;;5.00;3.30;;;14.30;99.90;;;;;;5034704;28;20210;-67
2021/09/21 08:30:08;;;;;;;4.88;3.65;;;14.50;99.90;;;;;;5034033;28;20227;-68
2021/09/21 08:32:34;;;;;;;4.25;3.40;;;14.70;99.90;;;;;;5021932;28;20240;-70
2021/09/21 08:35:00;;;;;;;3.80;2.80;;;14.80;99.90;;;;;;5030069;28;20776;-68
2021/09/21 08:37:25;;;;;;;6.18;3.92;;;14.90;99.90;;;;;;5028206;28;20488;-71
2021/09/21 08:39:51;;;;;;;3.53;3.13;;;14.90;99.90;;;;;;5035539;28;20178;-68
2021/09/21 08:42:17;;;;;;;4.97;3.30;;;15.20;99.90;;;;;;5034959;28;20703;-68
2021/09/21 08:44:43;;;;;;;5.22;3.72;;;15.20;99.90;;;;;;5035574;28;20193;-70
2021/09/21 08:47:08;;;;;;;3.65;3.05;;;15.20;99.90;;;;;;5034333;28;20206;-67
2021/09/21 08:49:34;;;;;;;5.20;3.95;;;15.20;99.90;;;;;;5032112;28;20353;-68
2021/09/21 08:52:01;;;;;;;5.70;3.85;;;15.30;99.90;;;;;;5034216;28;20203;-67
2021/09/21 08:54:27;;;;;;;4.97;3.63;;;15.30;99.90;;;;;;5031309;28;20189;-71
2021/09/21 08:56:54;;;;;;;7.25;3.65;;;15.30;99.90;;;;;;5035386;28;20178;-68
2021/09/21 08:59:31;;;;;;;4.82;3.40;;;15.40;99.90;;;;;;5034148;28;20174;-70
2021/09/21 09:02:10;;;;;;;5.07;3.65;;;15.40;99.90;;;;;;5040328;28;20271;-69
2021/09/21 09:04:39;;;;;;;4.22;3.17;;;15.50;99.90;;;;;;5032643;28;20174;-70
2021/09/21 09:07:06;;;;;;;5.07;3.67;;;15.50;99.90;;;;;;5025191;28;20209;-69
2021/09/21 09:09:34;;;;;;;5.50;3.40;;;15.50;99.90;;;;;;5025019;28;20213;-70
2021/09/21 09:12:04;;;;;;;4.63;3.30;;;15.40;99.90;;;;;;5034559;28;20186;-69
2021/09/21 09:14:38;;;;;;;4.72;3.85;;;15.40;99.90;;;;;;5033968;28;20183;-71
2021/09/21 09:17:06;;;;;;;6.50;3.97;;;15.50;99.90;;;;;;5041956;28;20637;-68
2021/09/21 09:19:43;;;;;;;5.47;3.85;;;15.40;99.90;;;;;;5031790;28;20174;-68
2021/09/21 09:22:25;;;;;;;6.30;3.47;;;15.40;99.90;;;;;;5031507;28;20201;-68
2021/09/21 09:25:00;;;;;;;5.35;3.80;;;15.40;99.90;;;;;;5032138;28;20205;-70
2021/09/21 09:27:40;;;;;;;6.53;3.50;;;15.60;99.90;;;;;;5028747;28;20649;-69
2021/09/21 09:30:09;;;;;;;5.03;3.88;;;15.70;99.90;;;;;;5032018;28;20626;-67
2021/09/21 09:33:06;;;;;;;6.70;3.38;;;15.80;99.90;;;;;;5034394;28;20186;-71
2021/09/21 09:35:37;;;;;;;3.97;3.25;;;15.90;99.90;;;;;;5032549;28;20187;-68
2021/09/21 09:38:06;;;;;;;4.75;3.22;;;15.90;99.90;;;;;;5030286;28;20171;-67
2021/09/21 09:40:38;;;;;;;4.97;3.63;;;16.20;99.90;;;;;;5035194;28;21113;-69
2021/09/21 09:43:04;;;;;;;4.38;3.67;;;16.20;99.90;;;;;;5033710;28;20193;-69
2021/09/21 09:45:35;;;;;;;4.60;3.65;;;16.20;99.90;;;;;;5030041;28;20193;-69
2021/09/21 09:48:01;;;;;;;5.60;3.92;;;16.20;99.90;;;;;;5034674;28;20206;-70
2021/09/21 09:50:36;;;;;;;5.32;3.50;;;16.00;99.90;;;;;;5027378;28;20324;-71
2021/09/21 09:53:11;;;;;;;5.00;3.83;;;15.90;99.90;;;;;;5034015;28;20563;-68
2021/09/21 09:55:38;;;;;;;4.05;3.35;;;16.00;99.90;;;;;;5029955;28;20230;-68
2021/09/21 09:58:05;;;;;;;4.88;3.80;;;16.20;99.90;;;;;;5034534;28;20545;-67
2021/09/21 10:00:32;;;;;;;5.35;3.88;;;16.40;99.90;;;;;;5034645;28;20252;-67
2021/09/21 10:02:59;;;;;;;4.25;3.15;;;16.80;99.90;;;;;;5029219;28;20191;-68
2021/09/21 10:05:25;;;;;;;5.63;3.38;;;16.70;99.90;;;;;;5026198;28;20193;-68
2021/09/21 10:07:50;;;;;;;3.80;3.30;;;16.80;99.90;;;;;;5026034;28;20203;-69
2021/09/21 10:10:16;;;;;;;3.40;3.10;;;16.70;99.90;;;;;;5028067;28;20693;-70
2021/09/21 10:12:43;;;;;;;3.92;3.53;;;16.70;99.90;;;;;;5034042;28;20186;-69
2021/09/21 10:15:10;;;;;;;4.50;3.50;;;16.60;99.90;;;;;;5033682;28;20202;-69
2021/09/21 10:17:36;;;;;;;4.88;3.17;;;16.60;99.90;;;;;;5021738;28;20179;-68
2021/09/21 10:20:04;;;;;;;4.70;2.92;;;16.70;99.90;;;;;;5037648;28;20547;-69
2021/09/21 10:22:35;;;;;;;4.32;3.75;;;16.70;99.90;;;;;;5031136;28;20194;-69
2021/09/21 10:25:06;;;;;;;5.38;3.38;;;16.80;99.90;;;;;;5038986;28;20178;-67
2021/09/21 10:27:36;;;;;;;6.35;4.03;;;17.00;99.90;;;;;;5032515;28;20526;-69
2021/09/21 10:30:11;;;;;;;4.53;3.10;;;17.10;99.90;;;;;;5032165;28;20684;-70
2021/09/21 10:32:44;;;;;;;3.50;2.88;;;17.20;99.90;;;;;;5037801;28;20244;-70
2021/09/21 10:35:16;;;;;;;4.85;3.13;;;17.20;99.90;;;;;;5032257;28;20190;-67
2021/09/21 10:37:42;;;;;;;5.10;3.88;;;17.30;99.90;;;;;;5038329;28;20774;-70
2021/09/21 10:40:10;;;;;;;3.50;2.92;;;17.10;99.90;;;;;;5036748;28;20182;-69
2021/09/21 10:42:36;;;;;;;4.70;3.80;;;17.20;99.90;;;;;;5034225;28;20198;-69
2021/09/21 10:45:04;;;;;;;3.58;3.08;;;17.10;99.90;;;;;;5036439;28;20187;-70
2021/09/21 10:47:39;;;;;;;4.25;3.17;;;17.20;99.90;;;;;;5036705;28;20219;-70
2021/09/21 10:50:17;;;;;;;3.88;2.90;;;17.40;99.90;;;;;;5037775;28;20170;-70
2021/09/21 10:52:43;;;;;;;4.05;3.20;;;17.50;99.90;;;;;;5032707;28;20179;-68
2021/09/21 10:55:13;;;;;;;6.03;3.45;;;17.50;99.90;;;;;;5034191;28;20225;-67
2021/09/21 10:57:44;;;;;;;4.13;2.92;;;17.40;99.90;;;;;;5033301;28;20183;-70
2021/09/21 11:00:13;;;;;;;4.30;3.28;;;17.40;99.90;;;;;;5024121;28;20229;-70
2021/09/21 11:02:41;;;;;;;4.30;3.15;;;17.60;99.90;;;;;;5031189;28;20254;-69
2021/09/21 11:05:10;;;;;;;3.58;3.10;;;17.90;99.90;;;;;;5023826;28;20582;-70
2021/09/21 11:07:37;;;;;;;4.03;2.33;;;17.90;99.90;;;;;;5035091;28;20205;-70
2021/09/21 11:10:05;;;;;;;3.42;2.78;;;18.00;99.90;;;;;;5032772;28;20179;-71
2021/09/21 11:12:30;;;;;;;2.85;2.53;;;18.00;99.90;;;;;;5033897;28;20182;-68
2021/09/21 11:14:59;;;;;;;3.10;2.78;;;18.00;99.90;;;;;;5036613;28;20186;-68
2021/09/21 11:17:26;;;;;;;4.05;3.15;;;18.10;99.90;;;;;;5033039;28;20183;-68
2021/09/21 11:19:54;;;;;;;4.63;3.13;;;18.10;99.90;;;;;;5030970;28;20182;-70
2021/09/21 11:22:27;;;;;;;3.22;2.65;;;18.10;99.90;;;;;;5033037;28;20731;-68
2021/09/21 11:25:03;;;;;;;4.38;2.30;;;18.40;99.90;;;;;;5034591;28;20249;-68
2021/09/21 11:27:30;;;;;;;3.25;2.55;;;18.60;99.90;;;;;;5032862;28;20198;-70
2021/09/21 11:30:13;;;;;;;2.80;2.50;;;18.70;99.90;;;;;;5032396;28;20179;-70
2021/09/21 11:32:40;;;;;;;2.50;2.30;;;19.00;99.90;;;;;;5030100;28;20174;-70
2021/09/21 11:35:14;;;;;;;3.35;2.70;;;18.90;99.90;;;;;;5027995;28;20652;-70
2021/09/21 11:37:42;;;;;;;3.53;2.47;;;19.00;99.90;;;;;;5037154;28;20269;-70
2021/09/21 11:40:08;;;;;;;3.80;2.40;;;18.80;99.90;;;;;;5023958;28;20254;-68
2021/09/21 11:42:35;;;;;;;3.38;2.60;;;18.60;99.90;;;;;;4994521;28;1082896;-69
2021/09/21 11:45:11;;;;;;;3.05;2.50;;;18.10;99.90;;;;;;5043519;28;20186;-69
2021/09/21 11:47:41;;;;;;;5.13;2.50;;;17.70;99.90;;;;;;5033612;28;20679;-70
2021/09/21 11:50:18;;;;;;;3.10;2.03;;;17.70;99.90;;;;;;5033979;28;20179;-70
2021/09/21 11:52:51;;;;;;;3.55;2.30;;;17.70;99.90;;;;;;5037345;28;20205;-70
2021/09/21 11:55:20;;;;;;;2.97;2.38;;;17.70;99.90;;;;;;5038177;28;20201;-69
2021/09/21 11:57:47;;;;;;;4.00;2.60;;;17.50;99.90;;;;;;5036887;28;20534;-69
2021/09/21 12:00:27;;;;;;;4.70;2.58;;;17.50;99.90;;;;;;5034387;28;20486;-69
2021/09/21 12:03:08;;;;;;;5.38;2.53;;;17.20;99.90;;;;;;5033391;28;20199;-70
2021/09/21 12:05:37;;;;;;;3.63;2.42;;;17.10;99.90;;;;;;5036552;28;20212;-71
2021/09/21 12:08:06;;;;;;;2.95;2.35;;;17.10;99.90;;;;;;5030642;28;20202;-70
2021/09/21 12:10:32;;;;;;;2.20;2.00;;;17.10;99.90;;;;;;5026405;28;20651;-68
2021/09/21 12:13:05;;;;;;;1.77;1.67;;;17.10;99.90;;;;;;5035860;28;20170;-69
2021/09/21 12:15:31;;;;;;;2.53;2.20;;;17.20;99.90;;;;;;5034017;28;20171;-70
2021/09/21 12:17:59;;;;;;;2.25;1.92;;;17.20;99.90;;;;;;5026706;28;20601;-71
2021/09/21 12:20:26;;;;;;;2.60;2.08;;;16.90;99.90;;;;;;5032618;28;20289;-70
2021/09/21 12:22:53;;;;;;;3.17;2.00;;;16.80;99.90;;;;;;5032292;28;20179;-70
2021/09/21 12:25:21;;;;;;;2.28;1.80;;;16.70;99.90;;;;;;5034797;28;20823;-70
2021/09/21 12:27:51;;;;;;;3.42;1.85;;;16.70;99.90;;;;;;5036188;28;20220;-67
2021/09/21 12:30:21;;;;;;;3.97;2.17;;;16.70;99.90;;;;;;5033553;28;20187;-66
2021/09/21 12:33:15;;;;;;;2.88;2.20;;;16.60;99.90;;;;;;5033028;28;20580;-68
2021/09/21 12:35:46;;;;;;;3.00;2.03;;;16.50;99.90;;;;;;5028192;28;20191;-69
2021/09/21 12:38:15;;;;;;;3.30;2.65;;;16.50;99.90;;;;;;5033872;28;20201;-69
2021/09/21 12:41:01;;;;;;;3.38;2.17;;;16.40;99.90;;;;;;5033227;28;20218;-70
2021/09/21 12:43:32;;;;;;;4.55;2.33;;;16.50;99.90;;;;;;5034197;28;20206;-71
2021/09/21 12:46:04;;;;;;;2.28;1.83;;;16.40;99.90;;;;;;5034500;28;20186;-68
2021/09/21 12:48:32;;;;;;;1.60;1.40;;;16.30;99.90;;;;;;5032099;28;20504;-67
2021/09/21 12:51:01;;;;;;;3.40;2.08;;;16.30;99.90;;;;;;5025195;28;21211;-68
2021/09/21 12:53:27;;;;;;;2.70;1.70;;;16.30;99.90;;;;;;5032077;28;20191;-69
2021/09/21 12:55:59;;;;;;;2.33;1.45;;;16.30;99.90;;;;;;5035637;28;20183;-70
2021/09/21 12:58:36;;;;;;;2.15;1.80;;;16.20;99.90;;;;;;5027640;28;20638;-69
2021/09/21 13:01:04;;;;;;;2.47;2.00;;;16.10;99.90;;;;;;5025558;28;20565;-68